sensor_id;sensor_type;location;lat;lon;timestamp;pressure;altitude;pressure_sealevel;temperature;humidity
5238;BME280;2639;49.700;7.962;2023-10-09T06:39:52;99249.91;;;13.44;100.00
5238;BME280;2639;49.700;7.962;2023-10-09T06:41:07;99248.34;;;13.46;100.00
5238;BME280;2639;49.700;7.962;2023-10-09T06:42:25;99246.75;;;13.48;100.00
5238;BME280;2639;49.700;7.962;2023-10-09T06:43:49;99251.22;;;13.51;100.00
5238;BME280;2639;49.700;7.962;2023-10-09T06:44:55;99251.34;;;13.52;100.00
5238;BME280;2639;49.700;7.962;2023-10-09T06:45:58;99248.88;;;13.54;100.00
5238;BME280;2639;49.700;7.962;2023-10-09T06:47:21;99259.28;;;13.55;100.00
5238;BME280;2639;49.700;7.962;2023-10-09T06:48:27;99256.13;;;13.59;100.00
5238;BME280;2639;49.700;7.962;2023-10-09T06:49:42;99257.16;;;13.61;100.00
5238;BME280;2639;49.700;7.962;2023-10-09T06:51:06;99253.19;;;13.66;100.00
5238;BME280;2639;49.700;7.962;2023-10-09T06:52:14;99255.22;;;13.71;100.00
5238;BME280;2639;49.700;7.962;2023-10-09T06:53:38;99260.59;;;13.74;100.00
5238;BME280;2639;49.700;7.962;2023-10-09T06:54:54;99255.66;;;13.77;100.00
5238;BME280;2639;49.700;7.962;2023-10-09T06:55:59;99268.00;;;13.81;100.00
5238;BME280;2639;49.700;7.962;2023-10-09T06:57:08;99259.66;;;13.85;100.00
5238;BME280;2639;49.700;7.962;2023-10-09T06:58:21;99257.19;;;13.86;100.00
5238;BME280;2639;49.700;7.962;2023-10-09T06:59:25;99261.66;;;13.89;100.00
5238;BME280;2639;49.700;7.962;2023-10-09T07:00:43;99261.88;;;13.92;100.00
5238;BME280;2639;49.700;7.962;2023-10-09T07:02:01;99255.69;;;13.90;100.00
5238;BME280;2639;49.700;7.962;2023-10-09T07:03:19;99262.88;;;13.94;100.00
5238;BME280;2639;49.700;7.962;2023-10-09T07:04:32;99258.72;;;13.96;100.00
5238;BME280;2639;49.700;7.962;2023-10-09T07:05:48;99258.94;;;13.99;100.00
5238;BME280;2639;49.700;7.962;2023-10-09T07:07:02;99262.50;;;14.01;100.00
5238;BME280;2639;49.700;7.962;2023-10-09T07:08:09;99262.75;;;14.04;100.00
5238;BME280;2639;49.700;7.962;2023-10-09T07:09:27;99271.75;;;13.98;100.00
5238;BME280;2639;49.700;7.962;2023-10-09T07:10:46;99275.22;;;13.98;100.00
5238;BME280;2639;49.700;7.962;2023-10-09T07:12:04;99273.22;;;13.94;100.00
5238;BME280;2639;49.700;7.962;2023-10-09T07:13:12;99274.91;;;13.94;100.00
5238;BME280;2639;49.700;7.962;2023-10-09T07:14:16;99270.19;;;14.00;100.00
5238;BME280;2639;49.700;7.962;2023-10-09T07:15:35;99273.09;;;14.04;100.00
5238;BME280;2639;49.700;7.962;2023-10-09T07:16:52;99279.25;;;14.06;100.00
5238;BME280;2639;49.700;7.962;2023-10-09T07:18:00;99273.47;;;14.10;100.00
5238;BME280;2639;49.700;7.962;2023-10-09T07:19:21;99276.38;;;14.15;100.00
5238;BME280;2639;49.700;7.962;2023-10-09T07:20:37;99276.69;;;14.20;100.00
5238;BME280;2639;49.700;7.962;2023-10-09T07:21:40;99281.97;;;14.21;100.00
5238;BME280;2639;49.700;7.962;2023-10-09T07:22:54;99279.59;;;14.24;100.00
5238;BME280;2639;49.700;7.962;2023-10-09T07:23:58;99278.81;;;14.25;100.00
5238;BME280;2639;49.700;7.962;2023-10-09T07:25:16;99279.91;;;14.29;100.00
5238;BME280;2639;49.700;7.962;2023-10-09T07:26:31;99271.28;;;14.28;100.00
5238;BME280;2639;49.700;7.962;2023-10-09T07:27:49;99271.97;;;14.26;100.00
5238;BME280;2639;49.700;7.962;2023-10-09T07:28:53;99269.81;;;14.32;100.00
5238;BME280;2639;49.700;7.962;2023-10-09T07:30:18;99270.47;;;14.29;100.00
5238;BME280;2639;49.700;7.962;2023-10-09T07:31:36;99261.06;;;14.30;100.00
5238;BME280;2639;49.700;7.962;2023-10-09T07:32:50;99262.06;;;14.32;100.00
5238;BME280;2639;49.700;7.962;2023-10-09T07:33:54;99261.47;;;14.36;100.00
5238;BME280;2639;49.700;7.962;2023-10-09T07:35:00;99257.09;;;14.35;100.00
5238;BME280;2639;49.700;7.962;2023-10-09T07:36:06;99245.25;;;14.39;100.00
5238;BME280;2639;49.700;7.962;2023-10-09T07:37:10;99248.16;;;14.43;100.00
5238;BME280;2639;49.700;7.962;2023-10-09T07:38:24;99250.16;;;14.47;100.00
5238;BME280;2639;49.700;7.962;2023-10-09T07:39:31;99246.13;;;14.51;100.00
5238;BME280;2639;49.700;7.962;2023-10-09T07:40:40;99245.41;;;14.53;100.00
5238;BME280;2639;49.700;7.962;2023-10-09T07:41:59;99246.66;;;14.59;100.00
5238;BME280;2639;49.700;7.962;2023-10-09T07:43:17;99245.66;;;14.57;100.00
5238;BME280;2639;49.700;7.962;2023-10-09T07:44:20;99235.31;;;14.57;100.00
5238;BME280;2639;49.700;7.962;2023-10-09T07:45:36;99253.50;;;14.58;100.00
5238;BME280;2639;49.700;7.962;2023-10-09T07:46:55;99256.41;;;14.63;100.00
5238;BME280;2639;49.700;7.962;2023-10-09T07:48:16;99247.38;;;14.69;100.00
5238;BME280;2639;49.700;7.962;2023-10-09T07:49:27;99257.78;;;14.71;100.00
5238;BME280;2639;49.700;7.962;2023-10-09T07:50:36;99257.22;;;14.75;100.00
5238;BME280;2639;49.700;7.962;2023-10-09T07:51:43;99256.81;;;14.82;100.00
5238;BME280;2639;49.700;7.962;2023-10-09T07:52:49;99259.63;;;14.85;100.00
5238;BME280;2639;49.700;7.962;2023-10-09T07:53:52;99266.78;;;14.89;100.00
5238;BME280;2639;49.700;7.962;2023-10-09T07:54:59;99256.84;;;14.96;100.00
5238;BME280;2639;49.700;7.962;2023-10-09T07:56:07;99259.72;;;15.00;100.00
5238;BME280;2639;49.700;7.962;2023-10-09T07:57:13;99255.63;;;15.04;100.00
5238;BME280;2639;49.700;7.962;2023-10-09T07:58:18;99261.22;;;15.10;100.00
5238;BME280;2639;49.700;7.962;2023-10-09T07:59:27;99259.03;;;15.16;100.00
5238;BME280;2639;49.700;7.962;2023-10-09T08:00:33;99263.63;;;15.20;100.00
5238;BME280;2639;49.700;7.962;2023-10-09T08:01:40;99258.13;;;15.29;100.00
5238;BME280;2639;49.700;7.962;2023-10-09T08:02:54;99257.41;;;15.31;100.00
5238;BME280;2639;49.700;7.962;2023-10-09T08:04:03;99258.53;;;15.35;100.00
5238;BME280;2639;49.700;7.962;2023-10-09T08:05:13;99258.00;;;15.41;100.00
5238;BME280;2639;49.700;7.962;2023-10-09T08:06:21;99258.41;;;15.47;100.00
5238;BME280;2639;49.700;7.962;2023-10-09T08:07:38;99257.72;;;15.49;100.00
5238;BME280;2639;49.700;7.962;2023-10-09T08:09:11;99254.72;;;15.56;100.00
5238;BME280;2639;49.700;7.962;2023-10-09T08:10:30;99258.19;;;15.57;100.00
5238;BME280;2639;49.700;7.962;2023-10-09T08:11:47;99256.69;;;15.61;100.00
5238;BME280;2639;49.700;7.962;2023-10-09T08:13:03;99261.16;;;15.63;100.00
5238;BME280;2639;49.700;7.962;2023-10-09T08:14:30;99259.75;;;15.68;100.00
5238;BME280;2639;49.700;7.962;2023-10-09T08:15:44;99265.19;;;15.71;100.00
5238;BME280;2639;49.700;7.962;2023-10-09T08:16:54;99255.13;;;15.76;100.00
5238;BME280;2639;49.700;7.962;2023-10-09T08:18:13;99255.59;;;15.84;100.00
5238;BME280;2639;49.700;7.962;2023-10-09T08:19:30;99263.63;;;15.88;100.00
5238;BME280;2639;49.700;7.962;2023-10-09T08:20:36;99262.13;;;15.92;100.00
5238;BME280;2639;49.700;7.962;2023-10-09T08:21:54;99272.09;;;15.99;100.00
5238;BME280;2639;49.700;7.962;2023-10-09T08:23:30;99265.66;;;16.07;100.00
5238;BME280;2639;49.700;7.962;2023-10-09T08:24:35;99264.44;;;16.15;100.00
5238;BME280;2639;49.700;7.962;2023-10-09T08:25:43;99257.13;;;16.23;100.00
5238;BME280;2639;49.700;7.962;2023-10-09T08:26:59;99262.59;;;16.28;100.00
5238;BME280;2639;49.700;7.962;2023-10-09T08:28:18;99261.16;;;16.33;100.00
5238;BME280;2639;49.700;7.962;2023-10-09T08:29:33;99265.75;;;16.37;100.00
5238;BME280;2639;49.700;7.962;2023-10-09T08:30:36;99260.13;;;16.44;100.00
5238;BME280;2639;49.700;7.962;2023-10-09T08:31:53;99265.75;;;16.52;100.00
5238;BME280;2639;49.700;7.962;2023-10-09T08:32:59;99265.22;;;16.57;100.00
5238;BME280;2639;49.700;7.962;2023-10-09T08:34:06;99259.50;;;16.63;100.00
5238;BME280;2639;49.700;7.962;2023-10-09T08:35:14;99264.97;;;16.68;100.00
5238;BME280;2639;49.700;7.962;2023-10-09T08:36:32;99276.50;;;16.73;100.00
5238;BME280;2639;49.700;7.962;2023-10-09T08:37:39;99275.28;;;16.81;100.00
5238;BME280;2639;49.700;7.962;2023-10-09T08:38:43;99265.25;;;16.87;100.00
5238;BME280;2639;49.700;7.962;2023-10-09T08:39:48;99270.81;;;16.93;100.00
5238;BME280;2639;49.700;7.962;2023-10-09T08:40:53;99274.56;;;16.98;100.00
5238;BME280;2639;49.700;7.962;2023-10-09T08:42:01;99278.13;;;17.00;100.00
5238;BME280;2639;49.700;7.962;2023-10-09T08:43:14;99278.22;;;17.02;100.00
5238;BME280;2639;49.700;7.962;2023-10-09T08:44:19;99286.28;;;17.07;100.00
5238;BME280;2639;49.700;7.962;2023-10-09T08:45:24;99290.84;;;17.11;100.00
5238;BME280;2639;49.700;7.962;2023-10-09T08:46:30;99290.13;;;17.13;100.00
5238;BME280;2639;49.700;7.962;2023-10-09T08:47:34;99287.59;;;17.15;100.00
5238;BME280;2639;49.700;7.962;2023-10-09T08:48:37;99294.97;;;17.22;100.00
5238;BME280;2639;49.700;7.962;2023-10-09T08:49:41;99296.00;;;17.25;100.00
5238;BME280;2639;49.700;7.962;2023-10-09T08:50:45;99279.72;;;17.28;100.00
5238;BME280;2639;49.700;7.962;2023-10-09T08:51:53;99286.88;;;17.32;100.00
5238;BME280;2639;49.700;7.962;2023-10-09T08:52:56;99287.22;;;17.38;100.00
5238;BME280;2639;49.700;7.962;2023-10-09T08:53:59;99283.97;;;17.42;100.00
5238;BME280;2639;49.700;7.962;2023-10-09T08:55:03;99284.22;;;17.47;100.00
5238;BME280;2639;49.700;7.962;2023-10-09T08:56:09;99278.50;;;17.53;100.00
5238;BME280;2639;49.700;7.962;2023-10-09T08:57:15;99272.69;;;17.57;100.00
5238;BME280;2639;49.700;7.962;2023-10-09T08:58:21;99276.59;;;17.65;100.00
5238;BME280;2639;49.700;7.962;2023-10-09T08:59:40;99267.59;;;17.75;100.00
5238;BME280;2639;49.700;7.962;2023-10-09T09:00:48;99269.75;;;17.82;100.00
5238;BME280;2639;49.700;7.962;2023-10-09T09:01:52;99265.78;;;17.88;100.00
5238;BME280;2639;49.700;7.962;2023-10-09T09:03:00;99257.34;;;17.93;100.00
5238;BME280;2639;49.700;7.962;2023-10-09T09:04:04;99260.28;;;17.99;100.00
5238;BME280;2639;49.700;7.962;2023-10-09T09:05:16;99257.84;;;18.02;100.00
5238;BME280;2639;49.700;7.962;2023-10-09T09:06:19;99263.03;;;18.02;98.53
5238;BME280;2639;49.700;7.962;2023-10-09T09:07:25;99260.84;;;18.09;97.02
5238;BME280;2639;49.700;7.962;2023-10-09T09:08:30;99258.81;;;18.20;95.58
5238;BME280;2639;49.700;7.962;2023-10-09T09:09:33;99260.28;;;18.32;95.52
5238;BME280;2639;49.700;7.962;2023-10-09T09:10:37;99260.00;;;18.43;95.57
5238;BME280;2639;49.700;7.962;2023-10-09T09:11:49;99265.59;;;18.51;94.17
5238;BME280;2639;49.700;7.962;2023-10-09T09:12:53;99259.09;;;18.59;91.06
5238;BME280;2639;49.700;7.962;2023-10-09T09:14:05;99261.34;;;18.69;89.34
5238;BME280;2639;49.700;7.962;2023-10-09T09:15:16;99260.31;;;18.82;85.51
5238;BME280;2639;49.700;7.962;2023-10-09T09:16:23;99264.38;;;18.95;86.42
5238;BME280;2639;49.700;7.962;2023-10-09T09:17:32;99267.59;;;19.07;87.02
5238;BME280;2639;49.700;7.962;2023-10-09T09:18:49;99274.09;;;19.16;85.36
5238;BME280;2639;49.700;7.962;2023-10-09T09:19:54;99263.97;;;19.22;82.90
5238;BME280;2639;49.700;7.962;2023-10-09T09:20:57;99259.06;;;19.28;79.32
5238;BME280;2639;49.700;7.962;2023-10-09T09:22:01;99259.34;;;19.34;79.30
5238;BME280;2639;49.700;7.962;2023-10-09T09:23:13;99262.94;;;19.36;77.27
5238;BME280;2639;49.700;7.962;2023-10-09T09:24:18;99269.91;;;19.37;79.29
5238;BME280;2639;49.700;7.962;2023-10-09T09:25:40;99271.72;;;19.38;78.35
5238;BME280;2639;49.700;7.962;2023-10-09T09:26:47;99274.97;;;19.34;75.14
5238;BME280;2639;49.700;7.962;2023-10-09T09:28:01;99272.38;;;19.34;72.78
5238;BME280;2639;49.700;7.962;2023-10-09T09:29:12;99272.50;;;19.37;71.93
5238;BME280;2639;49.700;7.962;2023-10-09T09:30:24;99266.13;;;19.30;68.10
5238;BME280;2639;49.700;7.962;2023-10-09T09:31:28;99270.53;;;19.31;69.70
5238;BME280;2639;49.700;7.962;2023-10-09T09:32:40;99273.03;;;19.30;67.97
5238;BME280;2639;49.700;7.962;2023-10-09T09:34:05;99277.44;;;19.31;68.59
5238;BME280;2639;49.700;7.962;2023-10-09T09:35:14;99286.88;;;19.29;65.50
5238;BME280;2639;49.700;7.962;2023-10-09T09:36:22;99281.81;;;19.32;67.20
5238;BME280;2639;49.700;7.962;2023-10-09T09:37:29;99269.47;;;19.28;66.31
5238;BME280;2639;49.700;7.962;2023-10-09T09:38:35;99273.19;;;19.33;66.55
5238;BME280;2639;49.700;7.962;2023-10-09T09:39:44;99276.75;;;19.35;65.66
5238;BME280;2639;49.700;7.962;2023-10-09T09:40:57;99268.94;;;19.35;65.80
5238;BME280;2639;49.700;7.962;2023-10-09T09:42:05;99277.38;;;19.29;64.38
5238;BME280;2639;49.700;7.962;2023-10-09T09:43:16;99273.69;;;19.26;64.37
5238;BME280;2639;49.700;7.962;2023-10-09T09:44:24;99264.25;;;19.28;64.69
5238;BME280;2639;49.700;7.962;2023-10-09T09:45:34;99269.63;;;19.31;66.67
5238;BME280;2639;49.700;7.962;2023-10-09T09:46:37;99279.88;;;19.28;68.52
5238;BME280;2639;49.700;7.962;2023-10-09T09:47:45;99280.41;;;19.21;64.64
5238;BME280;2639;49.700;7.962;2023-10-09T09:48:55;99295.13;;;19.20;65.38
5238;BME280;2639;49.700;7.962;2023-10-09T09:50:05;99292.63;;;19.22;65.04
5238;BME280;2639;49.700;7.962;2023-10-09T09:51:15;99289.31;;;19.26;64.79
5238;BME280;2639;49.700;7.962;2023-10-09T09:52:19;99293.06;;;19.31;64.95
5238;BME280;2639;49.700;7.962;2023-10-09T09:53:27;99301.03;;;19.34;66.22
5238;BME280;2639;49.700;7.962;2023-10-09T09:54:35;99301.16;;;19.37;65.26
5238;BME280;2639;49.700;7.962;2023-10-09T09:55:42;99301.34;;;19.40;66.61
5238;BME280;2639;49.700;7.962;2023-10-09T09:56:54;99309.38;;;19.45;67.04
5238;BME280;2639;49.700;7.962;2023-10-09T09:57:58;99308.44;;;19.44;65.90
5238;BME280;2639;49.700;7.962;2023-10-09T09:59:03;99317.09;;;19.43;68.30
5238;BME280;2639;49.700;7.962;2023-10-09T10:00:09;99317.19;;;19.45;68.02
5238;BME280;2639;49.700;7.962;2023-10-09T10:01:31;99319.19;;;19.50;68.50
5238;BME280;2639;49.700;7.962;2023-10-09T10:02:37;99324.53;;;19.53;67.31
5238;BME280;2639;49.700;7.962;2023-10-09T10:03:47;99322.88;;;19.55;67.37
5238;BME280;2639;49.700;7.962;2023-10-09T10:04:54;99316.34;;;19.64;68.82
5238;BME280;2639;49.700;7.962;2023-10-09T10:06:00;99313.16;;;19.69;69.41
5238;BME280;2639;49.700;7.962;2023-10-09T10:07:07;99308.09;;;19.72;67.76
5238;BME280;2639;49.700;7.962;2023-10-09T10:08:15;99314.50;;;19.79;68.25
5238;BME280;2639;49.700;7.962;2023-10-09T10:09:34;99327.72;;;19.84;67.57
5238;BME280;2639;49.700;7.962;2023-10-09T10:10:41;99320.97;;;19.87;65.50
5238;BME280;2639;49.700;7.962;2023-10-09T10:11:54;99314.13;;;19.89;65.35
5238;BME280;2639;49.700;7.962;2023-10-09T10:13:06;99316.94;;;19.94;66.70
5238;BME280;2639;49.700;7.962;2023-10-09T10:14:17;99319.75;;;19.99;67.63
5238;BME280;2639;49.700;7.962;2023-10-09T10:15:57;99320.66;;;19.99;65.12
5238;BME280;2639;49.700;7.962;2023-10-09T10:17:03;99317.97;;;19.97;66.79
5238;BME280;2639;49.700;7.962;2023-10-09T10:18:20;99315.34;;;19.97;65.03
5238;BME280;2639;49.700;7.962;2023-10-09T10:19:23;99309.34;;;19.99;65.14
5238;BME280;2639;49.700;7.962;2023-10-09T10:20:27;99313.03;;;20.04;65.96
5238;BME280;2639;49.700;7.962;2023-10-09T10:21:34;99322.78;;;20.08;65.90
5238;BME280;2639;49.700;7.962;2023-10-09T10:22:43;99322.09;;;20.12;67.33
5238;BME280;2639;49.700;7.962;2023-10-09T10:23:50;99318.97;;;20.19;67.36
5238;BME280;2639;49.700;7.962;2023-10-09T10:24:53;99325.81;;;20.17;63.78
5238;BME280;2639;49.700;7.962;2023-10-09T10:26:16;99324.31;;;20.22;64.23
5238;BME280;2639;49.700;7.962;2023-10-09T10:27:20;99324.44;;;20.25;63.83
5238;BME280;2639;49.700;7.962;2023-10-09T10:28:28;99326.38;;;20.29;63.96
5238;BME280;2639;49.700;7.962;2023-10-09T10:29:38;99319.34;;;20.28;63.01
5238;BME280;2639;49.700;7.962;2023-10-09T10:30:46;99326.38;;;20.29;63.19
5238;BME280;2639;49.700;7.962;2023-10-09T10:31:53;99320.41;;;20.32;64.88
5238;BME280;2639;49.700;7.962;2023-10-09T10:33:01;99318.13;;;20.39;64.98
5238;BME280;2639;49.700;7.962;2023-10-09T10:34:18;99319.94;;;20.41;64.98
5238;BME280;2639;49.700;7.962;2023-10-09T10:35:26;99317.31;;;20.41;64.01
5238;BME280;2639;49.700;7.962;2023-10-09T10:36:35;99319.16;;;20.43;63.76
5238;BME280;2639;49.700;7.962;2023-10-09T10:37:38;99318.41;;;20.46;63.65
5238;BME280;2639;49.700;7.962;2023-10-09T10:38:59;99314.25;;;20.49;63.91
5238;BME280;2639;49.700;7.962;2023-10-09T10:40:08;99315.25;;;20.53;63.45
5238;BME280;2639;49.700;7.962;2023-10-09T10:41:16;99318.03;;;20.56;64.25
5238;BME280;2639;49.700;7.962;2023-10-09T10:42:21;99314.81;;;20.62;64.15
5238;BME280;2639;49.700;7.962;2023-10-09T10:43:36;99308.81;;;20.64;63.27
5238;BME280;2639;49.700;7.962;2023-10-09T10:44:51;99298.94;;;20.57;63.20
5238;BME280;2639;49.700;7.962;2023-10-09T10:46:01;99296.53;;;20.62;63.72
5238;BME280;2639;49.700;7.962;2023-10-09T10:47:08;99285.25;;;20.63;63.44
5238;BME280;2639;49.700;7.962;2023-10-09T10:48:26;99269.56;;;20.61;62.31
5238;BME280;2639;49.700;7.962;2023-10-09T10:49:43;99274.22;;;20.68;63.37
5238;BME280;2639;49.700;7.962;2023-10-09T10:50:56;99265.81;;;20.75;63.60
5238;BME280;2639;49.700;7.962;2023-10-09T10:51:59;99262.53;;;20.79;64.57
5238;BME280;2639;49.700;7.962;2023-10-09T10:53:11;99262.53;;;20.79;63.49
5238;BME280;2639;49.700;7.962;2023-10-09T10:54:22;99261.75;;;20.82;63.81
5238;BME280;2639;49.700;7.962;2023-10-09T10:55:55;99266.22;;;20.85;63.98
5238;BME280;2639;49.700;7.962;2023-10-09T10:56:59;99266.22;;;20.85;63.54
5238;BME280;2639;49.700;7.962;2023-10-09T10:58:02;99269.63;;;20.84;63.21
5238;BME280;2639;49.700;7.962;2023-10-09T10:59:12;99270.59;;;20.86;63.59
5238;BME280;2639;49.700;7.962;2023-10-09T11:00:16;99269.50;;;20.80;62.45
5238;BME280;2639;49.700;7.962;2023-10-09T11:01:49;99281.59;;;20.78;63.38
5238;BME280;2639;49.700;7.962;2023-10-09T11:02:55;99278.19;;;20.79;63.78
5238;BME280;2639;49.700;7.962;2023-10-09T11:04:17;99276.66;;;20.85;64.19
5238;BME280;2639;49.700;7.962;2023-10-09T11:05:27;99269.78;;;20.87;64.31
5238;BME280;2639;49.700;7.962;2023-10-09T11:06:43;99273.34;;;20.89;63.18
5238;BME280;2639;49.700;7.962;2023-10-09T11:07:51;99272.31;;;20.85;63.00
5238;BME280;2639;49.700;7.962;2023-10-09T11:09:00;99262.06;;;20.90;63.88
5238;BME280;2639;49.700;7.962;2023-10-09T11:10:11;99257.03;;;20.94;62.91
5238;BME280;2639;49.700;7.962;2023-10-09T11:11:29;99248.38;;;20.95;62.08
5238;BME280;2639;49.700;7.962;2023-10-09T11:12:42;99252.00;;;20.99;62.22
5238;BME280;2639;49.700;7.962;2023-10-09T11:14:08;99263.53;;;21.04;62.74
5238;BME280;2639;49.700;7.962;2023-10-09T11:15:17;99267.09;;;21.06;62.93
5238;BME280;2639;49.700;7.962;2023-10-09T11:16:40;99268.88;;;21.07;61.71
5238;BME280;2639;49.700;7.962;2023-10-09T11:17:57;99253.34;;;21.10;62.46
5238;BME280;2639;49.700;7.962;2023-10-09T11:19:00;99252.47;;;21.10;61.40
5238;BME280;2639;49.700;7.962;2023-10-09T11:20:16;99243.66;;;21.08;61.50
5238;BME280;2639;49.700;7.962;2023-10-09T11:21:34;99251.53;;;21.09;60.74
5238;BME280;2639;49.700;7.962;2023-10-09T11:22:43;99250.78;;;21.12;60.58
5238;BME280;2639;49.700;7.962;2023-10-09T11:24:07;99258.56;;;21.10;60.95
5238;BME280;2639;49.700;7.962;2023-10-09T11:25:22;99251.81;;;21.15;61.14
5238;BME280;2639;49.700;7.962;2023-10-09T11:26:29;99257.03;;;21.15;60.79
5238;BME280;2639;49.700;7.962;2023-10-09T11:27:33;99251.81;;;21.15;61.21
5238;BME280;2639;49.700;7.962;2023-10-09T11:28:42;99248.34;;;21.16;60.65
5238;BME280;2639;49.700;7.962;2023-10-09T11:29:51;99244.16;;;21.20;59.92
5238;BME280;2639;49.700;7.962;2023-10-09T11:30:55;99239.22;;;21.28;59.97
5238;BME280;2639;49.700;7.962;2023-10-09T11:31:59;99241.16;;;21.32;60.97
5238;BME280;2639;49.700;7.962;2023-10-09T11:33:05;99243.06;;;21.36;60.71
5238;BME280;2639;49.700;7.962;2023-10-09T11:34:18;99247.72;;;21.43;60.42
5238;BME280;2639;49.700;7.962;2023-10-09T11:35:32;99246.00;;;21.43;59.77
5238;BME280;2639;49.700;7.962;2023-10-09T11:36:38;99242.59;;;21.46;59.19
5238;BME280;2639;49.700;7.962;2023-10-09T11:37:41;99237.38;;;21.46;59.86
5238;BME280;2639;49.700;7.962;2023-10-09T11:39:12;99234.91;;;21.49;60.45
5238;BME280;2639;49.700;7.962;2023-10-09T11:40:33;99234.06;;;21.50;60.24
5238;BME280;2639;49.700;7.962;2023-10-09T11:42:01;99234.19;;;21.53;58.67
5238;BME280;2639;49.700;7.962;2023-10-09T11:43:07;99239.66;;;21.59;59.52
5238;BME280;2639;49.700;7.962;2023-10-09T11:44:16;99238.06;;;21.63;57.82
5238;BME280;2639;49.700;7.962;2023-10-09T11:45:22;99242.56;;;21.67;57.75
5238;BME280;2639;49.700;7.962;2023-10-09T11:46:26;99245.47;;;21.75;58.18
5238;BME280;2639;49.700;7.962;2023-10-09T11:47:41;99236.09;;;21.80;57.78
5238;BME280;2639;49.700;7.962;2023-10-09T11:49:03;99234.41;;;21.82;56.99
5238;BME280;2639;49.700;7.962;2023-10-09T11:50:40;99221.44;;;21.85;56.85
5238;BME280;2639;49.700;7.962;2023-10-09T11:51:53;99221.69;;;21.91;56.84
5238;BME280;2639;49.700;7.962;2023-10-09T11:53:39;99222.50;;;21.90;56.33
5238;BME280;2639;49.700;7.962;2023-10-09T11:54:45;99221.69;;;21.91;56.44
5238;BME280;2639;49.700;7.962;2023-10-09T11:55:49;99223.81;;;22.01;57.23
5238;BME280;2639;49.700;7.962;2023-10-09T11:56:52;99218.91;;;22.11;57.77
5238;BME280;2639;49.700;7.962;2023-10-09T11:57:57;99220.13;;;22.20;57.93
5238;BME280;2639;49.700;7.962;2023-10-09T11:59:01;99214.59;;;22.35;57.80
5238;BME280;2639;49.700;7.962;2023-10-09T12:00:07;99205.53;;;22.51;57.79
5238;BME280;2639;49.700;7.962;2023-10-09T12:01:27;99203.28;;;22.62;56.32
5238;BME280;2639;49.700;7.962;2023-10-09T12:02:37;99195.03;;;22.75;56.53
5238;BME280;2639;49.700;7.962;2023-10-09T12:03:47;99193.66;;;22.86;56.70
5238;BME280;2639;49.700;7.962;2023-10-09T12:04:52;99192.16;;;22.95;54.31
5238;BME280;2639;49.700;7.962;2023-10-09T12:06:01;99187.91;;;22.98;51.43
5238;BME280;2639;49.700;7.962;2023-10-09T12:07:08;99189.03;;;23.05;52.45
5238;BME280;2639;49.700;7.962;2023-10-09T12:08:12;99184.69;;;23.05;51.19
5238;BME280;2639;49.700;7.962;2023-10-09T12:09:17;99184.91;;;23.12;50.50
5238;BME280;2639;49.700;7.962;2023-10-09T12:10:26;99181.78;;;23.25;51.17
5238;BME280;2639;49.700;7.962;2023-10-09T12:11:29;99182.88;;;23.31;50.24
5238;BME280;2639;49.700;7.962;2023-10-09T12:12:33;99181.41;;;23.40;50.11
5238;BME280;2639;49.700;7.962;2023-10-09T12:13:37;99187.28;;;23.33;48.06
5238;BME280;2639;49.700;7.962;2023-10-09T12:14:41;99186.63;;;23.40;49.38
5238;BME280;2639;49.700;7.962;2023-10-09T12:15:44;99177.22;;;23.46;50.29
5238;BME280;2639;49.700;7.962;2023-10-09T12:16:49;99177.97;;;23.42;48.87
5238;BME280;2639;49.700;7.962;2023-10-09T12:17:52;99176.31;;;23.46;49.30
5238;BME280;2639;49.700;7.962;2023-10-09T12:18:55;99181.69;;;23.49;49.40
5238;BME280;2639;49.700;7.962;2023-10-09T12:19:59;99188.47;;;23.42;48.00
5238;BME280;2639;49.700;7.962;2023-10-09T12:21:03;99187.66;;;23.45;48.96
5238;BME280;2639;49.700;7.962;2023-10-09T12:22:08;99185.25;;;23.51;49.55
5238;BME280;2639;49.700;7.962;2023-10-09T12:23:13;99186.34;;;23.59;48.70
5238;BME280;2639;49.700;7.962;2023-10-09T12:24:17;99182.13;;;23.64;48.83
5238;BME280;2639;49.700;7.962;2023-10-09T12:25:21;99180.28;;;23.60;48.19
5238;BME280;2639;49.700;7.962;2023-10-09T12:26:25;99182.13;;;23.64;49.13
5238;BME280;2639;49.700;7.962;2023-10-09T12:27:27;99193.59;;;23.68;49.11
5238;BME280;2639;49.700;7.962;2023-10-09T12:28:32;99185.69;;;23.66;47.28
5238;BME280;2639;49.700;7.962;2023-10-09T12:29:35;99187.47;;;23.67;48.18
5238;BME280;2639;49.700;7.962;2023-10-09T12:30:39;99177.06;;;23.70;48.01
5238;BME280;2639;49.700;7.962;2023-10-09T12:31:42;99162.50;;;23.80;48.85
5238;BME280;2639;49.700;7.962;2023-10-09T12:32:47;99166.13;;;23.84;48.60
5238;BME280;2639;49.700;7.962;2023-10-09T12:33:50;99152.22;;;23.88;48.10
5238;BME280;2639;49.700;7.962;2023-10-09T12:34:53;99155.84;;;23.91;47.95
5238;BME280;2639;49.700;7.962;2023-10-09T12:35:58;99147.22;;;23.96;48.70
5238;BME280;2639;49.700;7.962;2023-10-09T12:37:05;99149.84;;;23.97;48.68
5238;BME280;2639;49.700;7.962;2023-10-09T12:38:08;99151.81;;;24.04;48.91
5238;BME280;2639;49.700;7.962;2023-10-09T12:39:11;99146.41;;;23.98;47.88
5238;BME280;2639;49.700;7.962;2023-10-09T12:40:20;99141.16;;;23.98;48.56
5238;BME280;2639;49.700;7.962;2023-10-09T12:41:26;99144.72;;;24.00;48.03
5238;BME280;2639;49.700;7.962;2023-10-09T12:42:31;99144.78;;;24.03;48.52
5238;BME280;2639;49.700;7.962;2023-10-09T12:43:35;99144.78;;;24.03;49.27
5238;BME280;2639;49.700;7.962;2023-10-09T12:44:40;99138.69;;;24.04;49.24
5238;BME280;2639;49.700;7.962;2023-10-09T12:45:44;99137.84;;;24.05;48.18
5238;BME280;2639;49.700;7.962;2023-10-09T12:46:48;99135.41;;;24.11;49.28
5238;BME280;2639;49.700;7.962;2023-10-09T12:47:55;99131.88;;;24.11;48.60
5238;BME280;2639;49.700;7.962;2023-10-09T12:49:01;99130.16;;;24.11;48.30
5238;BME280;2639;49.700;7.962;2023-10-09T12:50:04;99128.50;;;24.15;47.76
5238;BME280;2639;49.700;7.962;2023-10-09T12:51:16;99133.81;;;24.18;47.17
5238;BME280;2639;49.700;7.962;2023-10-09T12:52:20;99133.03;;;24.21;47.26
5238;BME280;2639;49.700;7.962;2023-10-09T12:53:32;99140.09;;;24.25;48.70
5238;BME280;2639;49.700;7.962;2023-10-09T12:54:35;99141.91;;;24.26;48.81
5238;BME280;2639;49.700;7.962;2023-10-09T12:55:39;99132.34;;;24.29;47.80
5238;BME280;2639;49.700;7.962;2023-10-09T12:56:42;99129.72;;;24.28;46.96
5238;BME280;2639;49.700;7.962;2023-10-09T12:57:50;99130.59;;;24.28;47.30
5238;BME280;2639;49.700;7.962;2023-10-09T12:58:54;99129.78;;;24.31;47.82